createdAt,value
2019-04-29T00:02:05.440Z,29.20
2019-04-29T00:04:34.119Z,29.20
2019-04-29T00:07:02.870Z,29.20
2019-04-29T00:09:31.655Z,29.30
2019-04-29T00:12:00.436Z,29.30
2019-04-29T00:14:30.349Z,29.20
2019-04-29T00:17:00.672Z,29.30
2019-04-29T00:19:36.174Z,29.30
2019-04-29T00:22:04.798Z,29.30
2019-04-29T00:24:33.441Z,29.20
2019-04-29T00:27:02.194Z,29.30
2019-04-29T00:29:30.825Z,29.30
2019-04-29T00:31:59.591Z,29.20
2019-04-29T00:34:28.223Z,29.20
2019-04-29T00:36:58.511Z,29.30
2019-04-29T00:39:46.767Z,29.20
2019-04-29T00:42:25.614Z,29.20
2019-04-29T00:44:54.283Z,29.20
2019-04-29T00:47:23.071Z,29.30
2019-04-29T00:49:51.638Z,29.20
2019-04-29T00:52:20.353Z,29.20
2019-04-29T00:55:08.831Z,29.20
2019-04-29T00:57:37.402Z,29.20
2019-04-29T01:00:08.105Z,29.20
2019-04-29T01:02:39.215Z,29.30
2019-04-29T01:05:07.923Z,29.30
2019-04-29T01:07:36.583Z,29.20
2019-04-29T01:10:06.717Z,29.20
2019-04-29T01:12:36.702Z,29.20
2019-04-29T01:15:07.067Z,29.20
2019-04-29T01:17:35.684Z,29.20
2019-04-29T01:20:06.735Z,29.20
2019-04-29T01:22:35.330Z,29.80
2019-04-29T01:25:05.344Z,29.20
2019-04-29T01:27:35.662Z,29.20
2019-04-29T01:30:06.042Z,29.20
2019-04-29T01:32:37.391Z,29.20
2019-04-29T01:35:07.402Z,29.20
2019-04-29T01:37:37.646Z,29.20
2019-04-29T01:40:09.095Z,29.20
2019-04-29T01:42:39.418Z,29.20
2019-04-29T01:45:08.397Z,29.20
2019-04-29T01:47:36.973Z,29.20
2019-04-29T01:50:06.900Z,29.20
2019-04-29T01:52:35.615Z,29.20
2019-04-29T01:55:04.834Z,29.20
2019-04-29T01:57:33.403Z,29.20
2019-04-29T02:00:02.013Z,29.30
2019-04-29T02:02:30.582Z,29.20
2019-04-29T02:04:59.195Z,29.20
2019-04-29T02:07:27.762Z,29.20
2019-04-29T02:10:07.151Z,29.30
2019-04-29T02:12:35.790Z,29.20
2019-04-29T02:15:08.679Z,29.20
2019-04-29T02:17:37.247Z,29.30
2019-04-29T02:20:09.099Z,29.20
2019-04-29T02:22:39.370Z,29.20
2019-04-29T02:25:09.718Z,29.30
2019-04-29T02:27:38.356Z,29.20
2019-04-29T02:30:09.543Z,29.20
2019-04-29T02:32:38.192Z,29.20
2019-04-29T02:35:07.139Z,29.20
2019-04-29T02:37:37.400Z,29.20
2019-04-29T02:40:20.947Z,29.30
2019-04-29T02:42:51.735Z,29.30
2019-04-29T02:45:22.139Z,29.30
2019-04-29T02:47:55.007Z,29.20
2019-04-29T02:50:25.669Z,29.20
2019-04-29T02:52:53.909Z,29.20
2019-04-29T02:55:24.140Z,29.20
2019-04-29T02:58:12.592Z,29.20
2019-04-29T03:00:59.066Z,29.20
2019-04-29T03:03:45.899Z,29.20
2019-04-29T03:06:14.613Z,29.20
2019-04-29T03:08:43.369Z,29.30
2019-04-29T03:11:12.775Z,29.20
2019-04-29T03:13:41.576Z,29.20
2019-04-29T03:16:10.116Z,29.20
2019-04-29T03:18:40.695Z,29.20
2019-04-29T03:21:10.913Z,29.20
2019-04-29T03:23:41.567Z,29.20
2019-04-29T03:26:09.806Z,29.20
2019-04-29T03:28:38.498Z,29.20
2019-04-29T03:31:07.213Z,29.20
2019-04-29T03:33:35.776Z,29.20
2019-04-29T03:36:04.506Z,29.20
2019-04-29T03:38:35.770Z,29.20
2019-04-29T03:41:04.428Z,29.20
2019-04-29T03:43:33.112Z,29.20
2019-04-29T03:46:01.763Z,29.20
2019-04-29T03:48:30.376Z,29.20
2019-04-29T03:50:58.967Z,29.20
2019-04-29T03:53:28.592Z,29.20
2019-04-29T03:55:57.586Z,29.30
2019-04-29T03:58:26.248Z,29.30
2019-04-29T04:00:56.552Z,29.40
2019-04-29T04:03:29.956Z,29.40
2019-04-29T04:06:05.862Z,29.40
2019-04-29T04:08:42.323Z,29.40
2019-04-29T04:11:10.935Z,29.40
2019-04-29T04:13:39.631Z,29.40
2019-04-29T04:16:09.907Z,29.40
2019-04-29T04:18:43.129Z,29.20
2019-04-29T04:21:11.920Z,29.20
2019-04-29T04:23:42.180Z,29.10
2019-04-29T04:26:10.783Z,28.90
2019-04-29T04:28:39.446Z,28.80
2019-04-29T04:31:08.121Z,28.80
2019-04-29T04:33:36.670Z,28.60
2019-04-29T04:36:05.357Z,28.70
2019-04-29T04:38:36.085Z,28.80
2019-04-29T04:41:06.341Z,28.80
2019-04-29T04:43:34.990Z,28.70
2019-04-29T04:46:03.678Z,28.70
2019-04-29T04:48:32.321Z,28.70
2019-04-29T04:51:01.003Z,29.00
2019-04-29T04:53:29.872Z,29.30
2019-04-29T04:56:00.321Z,29.60
2019-04-29T04:58:28.933Z,29.90
2019-04-29T05:00:57.583Z,30.90
2019-04-29T05:03:26.210Z,29.70
2019-04-29T05:05:54.946Z,29.50
2019-04-29T05:08:23.608Z,30.40
2019-04-29T05:10:52.150Z,30.60
2019-04-29T05:13:27.927Z,30.70
2019-04-29T05:15:50.987Z,30.80
2019-04-29T05:18:19.566Z,31.00
2019-04-29T05:20:48.251Z,30.60
2019-04-29T05:23:16.828Z,30.40
2019-04-29T05:25:45.874Z,30.20
2019-04-29T05:28:14.491Z,30.00
2019-04-29T05:30:43.267Z,30.10
2019-04-29T05:33:11.860Z,30.00
2019-04-29T05:35:44.633Z,30.00
2019-04-29T05:38:18.066Z,29.90
2019-04-29T05:40:48.335Z,30.00
2019-04-29T05:43:33.759Z,29.90
2019-04-29T05:46:10.535Z,29.90
2019-04-29T05:48:39.107Z,30.00
2019-04-29T05:51:27.207Z,31.00
2019-04-29T05:54:01.621Z,31.10
2019-04-29T05:56:30.470Z,31.30
2019-04-29T05:58:59.194Z,31.50
2019-04-29T06:01:29.417Z,31.40
2019-04-29T06:03:58.216Z,31.00
2019-04-29T06:09:11.774Z,30.60
2019-04-29T06:14:35.782Z,32.10
2019-04-29T06:17:07.714Z,32.60
2019-04-29T06:19:39.437Z,32.20
2019-04-29T06:25:10.809Z,30.80
2019-04-29T06:27:41.090Z,30.40
2019-04-29T06:30:10.376Z,30.20
2019-04-29T06:35:21.490Z,30.00
2019-04-29T06:40:43.708Z,30.00
2019-04-29T06:43:12.990Z,29.90
2019-04-29T06:48:29.588Z,30.70
2019-04-29T06:51:21.016Z,30.10
2019-04-29T06:54:00.471Z,30.00
2019-04-29T06:57:03.645Z,29.90
2019-04-29T06:59:54.772Z,29.60
2019-04-29T07:02:26.383Z,29.70
2019-04-29T07:04:55.507Z,29.70
2019-04-29T07:07:27.052Z,29.80
2019-04-29T07:13:01.433Z,29.90
2019-04-29T07:15:38.114Z,29.90
2019-04-29T07:18:12.935Z,29.90
2019-04-29T07:23:50.796Z,30.00
